Airfield :
LOGIN :

Register | Disclaimer

   EN    FR    IT 

 










Legend :    VFR   Marginal VFR   IFR   Intensive IFR   Very Intensive IFR
Visi :
Ceiling :
>= 8 km
>= 3000ft
5 to 8 km
1000 to 3000 ft
1500m to 5 km
500 to 1000 ft
800 to 1500m
200 to 500 ft
< 800m
< 200 ft
Symbols :   Thunderstorms  Fog  Heavy snow  Heavy precipitations  Wind > 20 kt
SIGMETs :     Misc.  Thunderstorms  Icing  Turbulence  Mountain Waves  Volcanic Ashes






- Airport Elevation : 52 ft
- IATA code : IOM


EGNS - Isle of Man

CURRENT METAR :
  • 021850Z 31008KT 260V360 9999 SCT044 08/02 Q1014 NOSIG

EXPIRED METARs :
  • 021820Z 30008KT 270V330 9999 SCT035 BKN042 08/02 Q1014 NOSIG
  • 021750Z 34006KT 290V020 9999 FEW033 SCT038 08/03 Q1014 NOSIG
  • 021720Z 31009KT 9999 FEW030 09/03 Q1014 NOSIG
  • 021650Z 32010KT 270V360 9999 FEW020 09/03 Q1014 NOSIG
  • 021620Z 33011KT 9999 FEW020 09/04 Q1014 NOSIG

TAF TAF EGNS
Valid from the 02 at 15:00 until the 02 at 21:00 UTC


021400Z 0215/0221 30018KT 9999 FEW020 SCT040
PROB40
TEMPO 0215/0221 7000 SHRA BKN014



MET'MAP, your aeronautical weather chart ! - Copyright ORBIFLY December 2007 - Disclaimer

ORBIFLY MET'MAP TEAM :

Programming & Development : Alexandra Zaïnal
Concept & original design : Baudouin d'Aumeries
Assistance for programming : Marc-Olivier Méhu
Technical & hardware support : Manuel Goepfert

Contact : metmap@orbifly.com




SOURCES & CREDITS :

   NOAA